Time;durP1;ratioP1;P1;durP2;ratioP2;P2;SDS_P1;SDS_P2;PMS_P1;PMS_P2;Temp;Humidity;BMP_temperature;BMP_pressure;BME280_temperature;BME280_humidity;BME280_pressure;Samples;Min_cycle;Max_cycle;Signal;HPM_P1;HPM_P2
2022/05/27 00:01:52;;;;;;;24.08;5.28;;;13.90;99.90;;;;;;5085901;28;20040;-52
2022/05/27 00:04:18;;;;;;;15.43;4.28;;;13.80;99.90;;;;;;5103016;28;20389;-54
2022/05/27 00:06:43;;;;;;;19.00;4.78;;;13.70;99.90;;;;;;5102763;28;20036;-54
2022/05/27 00:09:09;;;;;;;20.63;4.72;;;13.70;99.90;;;;;;5102687;28;20051;-54
2022/05/27 00:11:35;;;;;;;19.08;5.07;;;13.70;99.90;;;;;;5102684;28;20070;-54
2022/05/27 00:14:01;;;;;;;16.83;5.47;;;13.60;99.90;;;;;;5102294;28;20040;-55
2022/05/27 00:16:28;;;;;;;18.35;4.35;;;13.70;99.90;;;;;;5083728;28;20048;-54
2022/05/27 00:18:54;;;;;;;16.27;3.90;;;13.60;99.90;;;;;;5100621;28;20072;-54
2022/05/27 00:21:21;;;;;;;17.08;4.72;;;13.60;99.90;;;;;;5094147;28;20060;-54
2022/05/27 00:23:47;;;;;;;20.38;4.60;;;13.60;99.90;;;;;;5093197;28;20040;-53
2022/05/27 00:26:13;;;;;;;16.15;4.20;;;13.50;99.90;;;;;;5075149;28;20106;-52
2022/05/27 00:28:39;;;;;;;15.88;4.10;;;13.50;99.90;;;;;;5082594;28;20443;-53
2022/05/27 00:31:05;;;;;;;22.33;4.65;;;13.50;99.90;;;;;;5095660;28;20166;-53
2022/05/27 00:33:33;;;;;;;15.82;4.05;;;13.40;99.90;;;;;;5090802;28;20782;-53
2022/05/27 00:35:58;;;;;;;19.00;4.28;;;13.40;99.90;;;;;;5099153;28;20044;-54
2022/05/27 00:38:24;;;;;;;15.52;4.70;;;13.40;99.90;;;;;;5096526;28;20518;-50
2022/05/27 00:40:52;;;;;;;16.88;3.63;;;13.40;99.90;;;;;;5100396;28;20089;-50
2022/05/27 00:43:19;;;;;;;14.45;3.67;;;13.40;99.90;;;;;;5081805;28;20079;-55
2022/05/27 00:46:02;;;;;;;19.42;4.20;;;13.40;99.90;;;;;;5081868;28;20037;-55
2022/05/27 00:48:31;;;;;;;20.65;4.57;;;13.40;99.90;;;;;;5063248;28;20049;-55
2022/05/27 00:50:57;;;;;;;17.55;4.10;;;13.40;99.90;;;;;;5081820;28;20101;-55
2022/05/27 00:53:41;;;;;;;17.63;3.83;;;13.30;99.90;;;;;;5073048;28;20491;-55
2022/05/27 00:56:09;;;;;;;17.15;4.35;;;13.20;99.90;;;;;;5098015;28;20048;-54
2022/05/27 00:58:47;;;;;;;16.50;4.25;;;13.20;99.90;;;;;;5081519;28;20056;-54
2022/05/27 01:01:14;;;;;;;16.70;3.63;;;13.10;99.90;;;;;;5087589;28;20044;-54
2022/05/27 01:03:41;;;;;;;20.70;4.07;;;13.00;99.90;;;;;;5093976;28;21002;-56
2022/05/27 01:06:07;;;;;;;19.15;3.40;;;12.90;99.90;;;;;;5096237;28;20129;-53
2022/05/27 01:08:33;;;;;;;15.52;3.33;;;12.90;99.90;;;;;;5101597;28;20040;-55
2022/05/27 01:11:37;;;;;;;22.83;4.95;;;12.80;99.90;;;;;;5081391;28;20055;-56
2022/05/27 01:14:38;;;;;;;15.23;3.22;;;12.70;99.90;;;;;;5089112;28;20107;-53
2022/05/27 01:17:31;;;;;;;15.57;3.67;;;12.60;99.90;;;;;;5100673;28;20044;-54
2022/05/27 01:20:22;;;;;;;15.30;3.67;;;12.50;99.90;;;;;;5100581;28;20036;-55
2022/05/27 01:23:13;;;;;;;19.23;3.40;;;12.50;99.90;;;;;;5100176;28;20112;-55
2022/05/27 01:26:00;;;;;;;17.33;3.58;;;12.50;99.90;;;;;;5096085;28;20048;-55
2022/05/27 01:28:41;;;;;;;11.20;3.05;;;12.50;99.90;;;;;;5095025;28;20036;-54
2022/05/27 01:31:27;;;;;;;14.82;3.42;;;12.50;99.90;;;;;;5099959;28;20094;-54
2022/05/27 01:34:23;;;;;;;12.38;2.95;;;12.40;99.90;;;;;;5086500;28;20051;-54
2022/05/27 01:37:44;;;;;;;13.50;2.83;;;12.40;99.90;;;;;;5043536;28;20059;-53
2022/05/27 01:40:31;;;;;;;12.27;3.25;;;12.30;99.90;;;;;;4997767;28;20040;-56
2022/05/27 01:43:15;;;;;;;12.38;3.15;;;12.30;99.90;;;;;;5074780;28;20053;-55
2022/05/27 01:45:48;;;;;;;12.95;3.10;;;12.20;99.90;;;;;;5091579;28;20047;-54
2022/05/27 01:48:18;;;;;;;12.38;2.65;;;12.20;99.90;;;;;;5099657;28;20040;-51
2022/05/27 01:51:20;;;;;;;15.63;3.50;;;12.20;99.90;;;;;;5082246;28;20046;-56
2022/05/27 01:53:57;;;;;;;14.18;4.03;;;12.30;99.90;;;;;;5081877;28;20135;-52
2022/05/27 01:56:35;;;;;;;15.35;3.80;;;12.30;99.90;;;;;;5095362;28;20100;-54
2022/05/27 01:59:06;;;;;;;13.98;3.33;;;12.30;99.90;;;;;;5100035;28;20052;-53
2022/05/27 02:01:46;;;;;;;13.83;3.30;;;12.30;99.90;;;;;;5087011;28;20070;-49
2022/05/27 02:04:33;;;;;;;10.13;2.80;;;12.30;99.90;;;;;;5079889;28;20307;-50
2022/05/27 02:07:04;;;;;;;13.82;3.05;;;12.20;99.90;;;;;;5083816;28;20044;-54
2022/05/27 02:09:52;;;;;;;15.60;2.80;;;12.10;99.90;;;;;;5079203;28;20041;-53
2022/05/27 02:12:36;;;;;;;17.10;3.22;;;12.10;99.90;;;;;;5082746;28;20075;-55
2022/05/27 02:15:10;;;;;;;14.40;2.85;;;12.10;99.90;;;;;;5095900;28;20423;-54
2022/05/27 02:17:45;;;;;;;15.77;3.35;;;12.10;99.90;;;;;;5099465;28;20044;-55
2022/05/27 02:20:17;;;;;;;18.55;3.72;;;12.10;99.90;;;;;;5087292;28;20101;-55
2022/05/27 02:23:21;;;;;;;18.17;3.15;;;12.10;99.90;;;;;;5079204;28;20051;-53
2022/05/27 02:25:48;;;;;;;16.42;3.47;;;12.10;99.90;;;;;;5079377;28;20092;-54
2022/05/27 02:28:37;;;;;;;16.27;3.05;;;12.00;99.90;;;;;;5094171;28;20044;-53
2022/05/27 02:31:12;;;;;;;12.40;2.40;;;12.00;99.90;;;;;;5078222;28;20052;-53
2022/05/27 02:36:34;;;;;;;12.57;2.90;;;11.80;99.90;;;;;;5098868;28;20050;-55
2022/05/27 02:39:00;;;;;;;11.35;2.65;;;11.80;99.90;;;;;;5086863;28;20036;-54
2022/05/27 02:42:02;;;;;;;15.85;2.60;;;11.90;99.90;;;;;;5087724;28;20100;-53
2022/05/27 02:44:37;;;;;;;15.57;3.20;;;11.80;99.90;;;;;;5042553;28;20052;-55
2022/05/27 02:47:04;;;;;;;13.27;2.55;;;11.80;99.90;;;;;;5083317;28;20958;-53
2022/05/27 02:50:06;;;;;;;20.48;3.83;;;11.70;99.90;;;;;;5103243;28;20039;-53
2022/05/27 02:52:41;;;;;;;15.25;2.70;;;11.80;99.90;;;;;;5102718;28;20044;-54
2022/05/27 02:55:17;;;;;;;11.63;2.55;;;11.70;99.90;;;;;;5103281;28;20058;-54
2022/05/27 02:57:46;;;;;;;10.07;2.35;;;11.70;99.90;;;;;;5097323;28;20049;-53
2022/05/27 03:00:20;;;;;;;15.98;2.85;;;11.80;99.90;;;;;;5100426;28;20448;-54
2022/05/27 03:02:46;;;;;;;12.50;2.40;;;11.60;99.90;;;;;;5082709;28;20048;-55
2022/05/27 03:05:15;;;;;;;9.75;2.42;;;11.50;99.90;;;;;;5064342;28;20055;-54
2022/05/27 03:08:17;;;;;;;18.95;3.03;;;11.50;99.90;;;;;;5092124;28;20043;-53
2022/05/27 03:11:07;;;;;;;13.13;2.67;;;11.40;99.90;;;;;;5082783;28;20040;-53
2022/05/27 03:14:06;;;;;;;15.32;2.65;;;11.40;99.90;;;;;;5098967;28;20723;-53
2022/05/27 03:16:44;;;;;;;15.35;2.78;;;11.20;99.90;;;;;;5103155;28;20445;-52
2022/05/27 03:19:34;;;;;;;14.07;2.97;;;11.20;99.90;;;;;;5102872;28;20048;-53
2022/05/27 03:22:09;;;;;;;13.98;2.80;;;11.20;99.90;;;;;;5102116;28;20091;-54
2022/05/27 03:25:04;;;;;;;11.25;2.72;;;11.10;99.90;;;;;;5102789;28;20308;-52
2022/05/27 03:27:58;;;;;;;15.15;2.50;;;11.00;99.90;;;;;;5084520;28;20104;-53
2022/05/27 03:30:37;;;;;;;10.35;2.47;;;11.00;99.90;;;;;;5093950;28;20043;-53
2022/05/27 03:33:20;;;;;;;11.32;2.40;;;10.90;99.90;;;;;;5082312;28;20068;-55
2022/05/27 03:35:49;;;;;;;17.52;3.13;;;11.00;99.90;;;;;;5083067;28;20154;-53
2022/05/27 03:38:17;;;;;;;15.75;3.00;;;10.90;99.90;;;;;;5100059;28;20037;-53
2022/05/27 03:41:04;;;;;;;11.45;2.33;;;10.90;99.90;;;;;;5100305;28;20517;-52
2022/05/27 03:43:33;;;;;;;11.13;2.70;;;10.80;99.90;;;;;;5081579;28;20055;-54
2022/05/27 03:46:00;;;;;;;14.05;2.75;;;10.90;99.90;;;;;;5084178;28;20040;-54
2022/05/27 03:48:28;;;;;;;9.57;2.45;;;11.00;99.90;;;;;;5083349;28;20032;-56
2022/05/27 03:50:58;;;;;;;10.70;2.45;;;11.00;99.90;;;;;;5102490;28;20373;-55
2022/05/27 03:54:03;;;;;;;13.10;3.35;;;10.90;99.90;;;;;;5102073;28;20101;-53
2022/05/27 03:56:10;;;;;;;12.98;2.88;;;11.00;99.90;;;;;;5101281;28;20079;-53
2022/05/27 03:58:35;;;;;;;13.80;2.50;;;11.00;99.90;;;;;;5101911;28;20040;-53
2022/05/27 04:01:01;;;;;;;12.07;3.00;;;11.00;99.90;;;;;;5101302;28;20090;-54
2022/05/27 04:03:27;;;;;;;16.27;2.80;;;11.10;99.90;;;;;;5084088;28;20040;-54
2022/05/27 04:05:52;;;;;;;13.65;2.42;;;11.10;99.90;;;;;;5101618;28;20103;-54
2022/05/27 04:08:18;;;;;;;18.05;3.03;;;11.10;99.90;;;;;;5091820;28;20068;-53
2022/05/27 04:10:43;;;;;;;14.48;2.60;;;11.10;99.90;;;;;;5063518;28;20094;-50
2022/05/27 04:13:09;;;;;;;9.98;2.78;;;11.00;99.90;;;;;;5053901;28;20079;-53
2022/05/27 04:15:34;;;;;;;9.65;2.72;;;11.00;99.90;;;;;;5081438;28;20435;-53
2022/05/27 04:18:00;;;;;;;11.75;2.92;;;11.00;99.90;;;;;;5084931;28;20619;-53
2022/05/27 04:20:26;;;;;;;15.63;3.75;;;11.00;99.90;;;;;;5101535;28;20044;-53
2022/05/27 04:22:56;;;;;;;13.02;2.85;;;11.00;99.90;;;;;;5090944;28;20056;-54
2022/05/27 04:25:21;;;;;;;19.80;3.63;;;11.10;99.90;;;;;;5081598;28;20094;-53
2022/05/27 04:27:47;;;;;;;17.15;3.58;;;11.10;99.90;;;;;;5081124;28;20041;-53
2022/05/27 04:30:14;;;;;;;15.07;2.92;;;11.20;99.90;;;;;;5082771;28;20092;-53
2022/05/27 04:32:40;;;;;;;14.13;3.50;;;11.20;99.90;;;;;;5101467;28;20044;-54
2022/05/27 04:35:07;;;;;;;12.15;2.65;;;11.20;99.90;;;;;;5100900;28;20047;-52
2022/05/27 04:37:33;;;;;;;12.45;2.92;;;11.10;99.90;;;;;;5085182;28;20045;-53
2022/05/27 04:39:59;;;;;;;11.52;2.60;;;11.20;99.90;;;;;;5080441;28;20105;-55
2022/05/27 04:42:25;;;;;;;13.75;3.15;;;11.20;99.90;;;;;;5095967;28;20410;-53
2022/05/27 04:44:52;;;;;;;20.67;2.97;;;11.30;99.90;;;;;;5099302;28;20048;-53
2022/05/27 04:47:17;;;;;;;14.00;3.25;;;11.40;99.90;;;;;;5100812;28;20079;-54
2022/05/27 04:49:56;;;;;;;11.93;2.65;;;11.50;99.90;;;;;;5093002;28;20048;-54
2022/05/27 04:52:27;;;;;;;11.68;3.22;;;11.60;99.90;;;;;;5080254;28;20110;-52
2022/05/27 04:54:54;;;;;;;15.32;2.90;;;11.60;99.90;;;;;;5085979;28;20817;-52
2022/05/27 04:57:23;;;;;;;17.77;3.67;;;11.60;99.90;;;;;;5100266;28;20068;-55
2022/05/27 04:59:49;;;;;;;19.65;3.40;;;11.70;99.90;;;;;;5101080;28;20052;-52
2022/05/27 05:02:18;;;;;;;15.02;2.75;;;11.60;99.90;;;;;;5100421;28;20076;-55
2022/05/27 05:04:44;;;;;;;13.95;3.35;;;11.70;99.90;;;;;;5100354;28;20068;-53
2022/05/27 05:07:10;;;;;;;13.63;2.78;;;11.70;99.90;;;;;;5100794;28;20082;-54
2022/05/27 05:09:38;;;;;;;14.07;3.38;;;11.80;99.90;;;;;;5100097;28;20036;-54
2022/05/27 05:12:04;;;;;;;14.93;3.15;;;11.80;99.90;;;;;;5093693;28;20050;-52
2022/05/27 05:14:30;;;;;;;14.88;3.33;;;11.80;99.90;;;;;;5097108;28;20051;-52
2022/05/27 05:16:56;;;;;;;16.48;3.00;;;11.60;99.90;;;;;;5090893;28;20793;-53
2022/05/27 05:19:21;;;;;;;11.82;3.33;;;11.70;99.90;;;;;;5077020;28;20052;-52
2022/05/27 05:21:47;;;;;;;10.73;2.92;;;11.70;99.90;;;;;;5086006;28;20052;-50
2022/05/27 05:24:13;;;;;;;14.20;3.22;;;11.60;99.90;;;;;;5088354;28;20514;-53
2022/05/27 05:26:39;;;;;;;11.60;2.50;;;11.60;99.90;;;;;;5086708;28;20135;-52
2022/05/27 05:29:06;;;;;;;15.60;3.35;;;11.70;99.90;;;;;;5076820;28;20039;-52
2022/05/27 05:31:32;;;;;;;11.65;2.65;;;11.70;99.90;;;;;;5068605;28;20087;-53
2022/05/27 05:33:59;;;;;;;16.23;4.05;;;11.70;99.90;;;;;;5076492;28;20619;-53
2022/05/27 05:36:32;;;;;;;15.07;3.50;;;11.80;99.90;;;;;;5076835;28;20559;-53
2022/05/27 05:38:57;;;;;;;12.85;2.65;;;11.90;99.90;;;;;;5078033;28;20048;-53
2022/05/27 05:41:28;;;;;;;13.57;2.90;;;12.10;99.90;;;;;;5079881;28;20547;-53
2022/05/27 05:43:54;;;;;;;15.07;3.55;;;12.10;99.90;;;;;;5092034;28;20399;-53
2022/05/27 05:46:21;;;;;;;14.73;3.50;;;12.20;99.90;;;;;;5091608;28;20040;-51
2022/05/27 05:48:46;;;;;;;19.33;2.95;;;12.20;99.90;;;;;;5079728;28;20036;-49
2022/05/27 05:51:12;;;;;;;15.43;3.60;;;12.30;99.90;;;;;;5080217;28;20041;-50
2022/05/27 05:53:38;;;;;;;16.58;2.97;;;12.30;99.90;;;;;;5096641;28;20196;-53
2022/05/27 05:56:04;;;;;;;14.35;2.88;;;12.40;99.90;;;;;;5073205;28;20044;-53
2022/05/27 05:58:29;;;;;;;14.30;3.17;;;12.50;99.90;;;;;;5079534;28;20105;-54
2022/05/27 06:00:55;;;;;;;16.65;3.10;;;12.60;99.90;;;;;;5085540;28;20048;-55
2022/05/27 06:03:20;;;;;;;17.83;2.95;;;12.70;99.90;;;;;;5100272;28;20048;-52
2022/05/27 06:05:47;;;;;;;11.23;2.67;;;12.70;99.90;;;;;;5099599;28;20046;-53
2022/05/27 06:08:15;;;;;;;16.10;3.60;;;12.70;99.90;;;;;;5099949;28;20074;-50
2022/05/27 06:10:41;;;;;;;13.25;3.00;;;12.80;99.90;;;;;;5098252;28;20047;-54
2022/05/27 06:13:07;;;;;;;20.23;2.90;;;12.80;99.90;;;;;;5079340;28;20052;-54
2022/05/27 06:15:33;;;;;;;16.48;4.10;;;12.90;99.90;;;;;;5083062;28;20045;-54
2022/05/27 06:18:02;;;;;;;14.82;3.67;;;12.90;99.90;;;;;;5083345;28;20037;-53
2022/05/27 06:20:28;;;;;;;18.67;2.85;;;12.80;99.90;;;;;;5100650;28;20388;-55
2022/05/27 06:22:54;;;;;;;16.27;2.80;;;12.90;99.90;;;;;;5096674;28;20044;-51
2022/05/27 06:25:20;;;;;;;12.68;2.72;;;12.90;99.90;;;;;;5069891;28;20040;-54
2022/05/27 06:27:46;;;;;;;14.27;3.10;;;12.80;99.90;;;;;;5094768;28;20051;-52
2022/05/27 06:35:24;;;;;;;14.32;2.72;;;12.90;99.90;;;;;;5082938;28;20100;-54
2022/05/27 06:37:50;;;;;;;15.65;3.00;;;12.90;99.90;;;;;;5083586;28;20040;-54
2022/05/27 06:40:18;;;;;;;15.65;3.13;;;12.60;99.90;;;;;;5092627;28;20125;-52
2022/05/27 06:42:44;;;;;;;19.00;3.67;;;12.70;99.90;;;;;;5103594;28;20050;-51
2022/05/27 06:45:11;;;;;;;12.90;2.58;;;12.80;99.90;;;;;;5103424;28;20129;-54
2022/05/27 06:47:39;;;;;;;17.42;3.17;;;12.80;99.90;;;;;;5102627;28;20127;-54
2022/05/27 06:50:06;;;;;;;18.10;3.53;;;12.80;99.90;;;;;;5098415;28;20096;-54
2022/05/27 06:52:32;;;;;;;14.57;2.90;;;12.80;99.90;;;;;;5089524;28;20059;-55
2022/05/27 06:54:57;;;;;;;13.88;2.50;;;12.90;99.90;;;;;;5103374;28;20040;-53
2022/05/27 06:57:23;;;;;;;13.57;3.28;;;13.00;99.90;;;;;;5102852;28;20084;-53
2022/05/27 06:59:49;;;;;;;17.83;2.70;;;13.00;99.90;;;;;;5102567;28;20078;-54
2022/05/27 07:02:15;;;;;;;15.88;2.50;;;13.10;99.90;;;;;;5099534;28;20562;-52
2022/05/27 07:04:40;;;;;;;15.00;3.83;;;13.00;99.90;;;;;;5102591;28;20040;-51
2022/05/27 07:07:06;;;;;;;14.88;2.85;;;13.10;99.90;;;;;;5103177;28;20048;-54
2022/05/27 07:09:35;;;;;;;14.15;2.95;;;13.20;99.90;;;;;;5087021;28;20047;-54
2022/05/27 07:12:04;;;;;;;17.90;3.72;;;13.40;99.90;;;;;;5095836;28;20049;-54
2022/05/27 07:14:29;;;;;;;13.07;2.88;;;13.30;99.90;;;;;;5102863;28;20054;-55
2022/05/27 07:16:55;;;;;;;11.73;3.33;;;13.50;99.90;;;;;;5102767;28;20040;-55
2022/05/27 07:19:21;;;;;;;16.42;3.45;;;13.40;99.90;;;;;;5097827;28;20066;-52
2022/05/27 07:21:48;;;;;;;13.88;3.28;;;13.20;99.90;;;;;;5082217;28;20056;-54
2022/05/27 07:24:16;;;;;;;16.02;3.65;;;13.30;99.90;;;;;;5093473;28;20048;-54
2022/05/27 07:26:43;;;;;;;16.58;4.55;;;13.40;99.90;;;;;;5101818;28;20055;-54
2022/05/27 07:29:10;;;;;;;19.27;3.58;;;13.30;99.90;;;;;;5084794;28;20050;-54
2022/05/27 07:31:37;;;;;;;11.63;2.42;;;13.20;99.90;;;;;;5086624;28;20041;-53
2022/05/27 07:34:03;;;;;;;15.55;3.10;;;13.10;99.90;;;;;;5099358;28;20056;-54
2022/05/27 07:36:29;;;;;;;19.30;4.15;;;13.00;99.90;;;;;;5071287;28;20055;-53
2022/05/27 07:38:56;;;;;;;17.08;3.03;;;13.00;99.90;;;;;;5101855;28;20040;-52
2022/05/27 07:41:22;;;;;;;17.38;3.25;;;12.80;99.90;;;;;;5102301;28;20052;-53
2022/05/27 07:43:49;;;;;;;12.30;3.08;;;13.00;99.90;;;;;;5083109;28;20476;-53
2022/05/27 07:46:16;;;;;;;16.70;3.38;;;13.20;99.90;;;;;;5082306;28;20033;-52
2022/05/27 07:48:45;;;;;;;17.48;3.45;;;13.40;99.90;;;;;;5081536;28;20048;-54
2022/05/27 07:51:11;;;;;;;16.73;2.97;;;13.50;99.90;;;;;;5082071;28;20036;-53
2022/05/27 07:53:38;;;;;;;14.82;3.10;;;13.50;99.90;;;;;;5081922;28;20102;-52
2022/05/27 07:56:05;;;;;;;14.95;3.22;;;13.60;99.90;;;;;;5096028;28;20043;-54
2022/05/27 07:58:31;;;;;;;14.55;3.22;;;13.60;99.90;;;;;;5101903;28;20040;-53
2022/05/27 08:00:56;;;;;;;14.52;3.67;;;13.80;99.90;;;;;;5101332;28;20044;-53
2022/05/27 08:03:22;;;;;;;15.27;3.15;;;13.70;99.90;;;;;;5102249;28;20082;-52
2022/05/27 08:05:48;;;;;;;15.05;2.88;;;13.50;99.90;;;;;;5099788;28;20039;-53
2022/05/27 08:08:14;;;;;;;14.38;3.13;;;13.50;99.90;;;;;;5088307;28;20359;-55
2022/05/27 08:10:40;;;;;;;13.32;3.08;;;13.90;99.90;;;;;;5084096;28;20145;-55
2022/05/27 08:13:07;;;;;;;14.57;3.15;;;13.80;99.90;;;;;;5090418;28;20052;-55
2022/05/27 08:15:32;;;;;;;12.02;2.53;;;13.40;99.90;;;;;;5084525;28;20040;-54
2022/05/27 08:17:59;;;;;;;18.83;3.17;;;13.50;99.90;;;;;;5088491;28;20476;-53
2022/05/27 08:20:27;;;;;;;10.07;2.00;;;13.50;99.90;;;;;;5083641;28;20044;-50
2022/05/27 08:54:06;;;;;;;14.88;2.85;;;13.10;99.90;;;;;;5120309;23;20074;-57
2022/05/27 08:59:53;;;;;;;18.83;2.95;;;13.40;99.90;;;;;;4947388;29;20054;-57
2022/05/27 09:02:39;;;;;;;17.48;3.28;;;13.10;99.90;;;;;;4945519;29;20054;-57
2022/05/27 09:05:16;;;;;;;17.02;3.50;;;13.00;99.90;;;;;;4954194;29;20055;-57
2022/05/27 09:08:04;;;;;;;17.73;3.25;;;13.30;99.90;;;;;;4943880;29;20045;-57
2022/05/27 09:10:45;;;;;;;13.93;2.90;;;13.30;99.90;;;;;;4937213;29;20080;-57
2022/05/27 09:13:16;;;;;;;18.33;4.25;;;13.40;99.90;;;;;;4938036;29;20047;-57
2022/05/27 09:15:59;;;;;;;13.07;2.72;;;13.50;99.90;;;;;;4962542;29;20098;-56
2022/05/27 09:18:47;;;;;;;16.85;3.58;;;13.40;99.90;;;;;;4947297;29;20075;-57
2022/05/27 09:21:36;;;;;;;20.27;3.45;;;13.50;99.90;;;;;;4938250;29;20063;-56
2022/05/27 09:24:24;;;;;;;14.13;3.28;;;13.40;99.90;;;;;;4941115;29;20054;-57
2022/05/27 09:27:07;;;;;;;17.20;3.85;;;13.20;99.90;;;;;;4931377;29;20048;-57
2022/05/27 09:29:45;;;;;;;14.20;3.10;;;13.20;99.90;;;;;;4943360;29;20077;-57
2022/05/27 09:32:21;;;;;;;15.77;3.03;;;13.30;99.90;;;;;;4961798;29;20055;-57
2022/05/27 09:34:49;;;;;;;20.30;4.00;;;13.30;99.90;;;;;;4961907;29;20066;-57
2022/05/27 09:37:24;;;;;;;17.50;3.60;;;13.40;99.90;;;;;;4962422;29;20054;-57
2022/05/27 09:39:53;;;;;;;16.30;2.78;;;13.60;99.90;;;;;;4923293;29;20048;-57
2022/05/27 09:42:37;;;;;;;13.68;4.15;;;13.70;99.90;;;;;;4930943;29;20049;-57
2022/05/27 09:45:03;;;;;;;18.95;3.53;;;13.60;99.90;;;;;;4906330;29;20048;-57
2022/05/27 09:47:32;;;;;;;13.30;2.70;;;13.50;99.90;;;;;;4923717;29;20044;-56
2022/05/27 09:50:09;;;;;;;15.95;2.90;;;13.30;99.90;;;;;;4926449;29;20052;-58
2022/05/27 09:52:40;;;;;;;18.77;4.22;;;13.60;99.90;;;;;;4904054;29;20071;-58
2022/05/27 09:55:26;;;;;;;17.13;3.08;;;13.60;99.90;;;;;;4931668;29;20048;-57
2022/05/27 09:58:01;;;;;;;13.15;2.80;;;13.40;99.90;;;;;;4940982;29;20111;-57
2022/05/27 10:00:40;;;;;;;17.55;3.63;;;13.40;99.90;;;;;;4940199;29;20048;-57
2022/05/27 10:03:41;;;;;;;19.00;3.60;;;13.70;99.90;;;;;;4942181;29;20105;-57
2022/05/27 10:06:15;;;;;;;12.20;2.67;;;13.60;99.90;;;;;;4881875;29;20448;-57
2022/05/27 10:08:44;;;;;;;16.60;3.25;;;13.40;99.90;;;;;;4914247;29;20083;-57
2022/05/27 10:11:15;;;;;;;19.48;3.95;;;13.20;99.90;;;;;;4923464;29;20036;-57
2022/05/27 10:13:41;;;;;;;20.20;4.10;;;13.50;99.90;;;;;;4941006;29;20075;-57
2022/05/27 10:16:23;;;;;;;17.10;3.95;;;13.60;99.90;;;;;;4933013;29;20052;-58
2022/05/27 10:19:04;;;;;;;15.48;3.25;;;13.20;99.90;;;;;;4923667;29;20048;-57
2022/05/27 10:21:31;;;;;;;12.25;2.50;;;13.30;99.90;;;;;;4940749;29;20111;-57
2022/05/27 10:24:16;;;;;;;14.13;2.80;;;13.30;99.90;;;;;;4929644;29;20511;-57
2022/05/27 10:26:43;;;;;;;14.70;3.05;;;13.50;99.90;;;;;;4914716;29;20060;-57
2022/05/27 10:29:16;;;;;;;20.20;3.60;;;13.50;99.90;;;;;;4923727;29;20048;-57
2022/05/27 10:31:54;;;;;;;17.48;3.58;;;13.50;99.90;;;;;;4939900;29;20048;-57
2022/05/27 10:34:42;;;;;;;17.92;3.13;;;13.40;99.90;;;;;;4942141;29;20040;-57
2022/05/27 10:37:22;;;;;;;20.83;3.50;;;13.80;99.90;;;;;;4942061;29;20055;-58
2022/05/27 10:39:54;;;;;;;17.10;3.22;;;14.20;99.90;;;;;;4923940;29;20059;-57
2022/05/27 10:42:51;;;;;;;16.45;2.85;;;13.70;99.90;;;;;;4936105;29;20044;-57
2022/05/27 10:45:49;;;;;;;17.88;3.17;;;13.50;99.90;;;;;;4942067;29;20059;-58
2022/05/27 10:48:34;;;;;;;16.25;3.38;;;13.70;99.90;;;;;;4922097;29;20052;-57
2022/05/27 10:51:33;;;;;;;16.40;3.47;;;13.50;99.90;;;;;;4928434;29;20054;-58
2022/05/27 10:54:15;;;;;;;18.77;3.85;;;13.50;99.90;;;;;;4941652;29;20145;-57
2022/05/27 11:03:22;;;;;;;15.02;2.95;;;13.60;99.90;;;;;;4944994;29;20622;-57
2022/05/27 11:06:09;;;;;;;18.45;3.42;;;13.70;99.90;;;;;;4938943;29;20067;-57
2022/05/27 11:08:55;;;;;;;14.95;3.00;;;13.70;99.90;;;;;;4937143;29;20052;-57
2022/05/27 11:11:58;;;;;;;16.05;3.78;;;13.50;99.90;;;;;;4920260;29;20048;-57
2022/05/27 11:15:12;;;;;;;17.15;3.50;;;13.70;99.90;;;;;;4925100;29;20068;-56
2022/05/27 11:17:56;;;;;;;15.32;3.95;;;13.50;99.90;;;;;;4925562;29;20052;-58
2022/05/27 11:21:16;;;;;;;18.20;3.97;;;14.00;99.90;;;;;;4926449;29;20044;-57
2022/05/27 11:24:00;;;;;;;17.80;3.97;;;13.90;99.90;;;;;;4866933;29;20077;-57
2022/05/27 11:26:43;;;;;;;19.05;3.28;;;13.60;99.90;;;;;;4866525;29;20075;-57
2022/05/27 11:29:34;;;;;;;16.90;3.67;;;13.80;99.90;;;;;;4915974;29;20055;-57
2022/05/27 11:32:22;;;;;;;15.10;3.50;;;13.90;99.90;;;;;;4939073;29;20124;-57
2022/05/27 11:35:29;;;;;;;14.77;4.25;;;13.70;99.90;;;;;;4952625;29;20050;-58
2022/05/27 11:38:04;;;;;;;16.52;2.92;;;13.70;99.90;;;;;;4912647;29;20149;-57
2022/05/27 11:40:38;;;;;;;15.60;2.92;;;13.40;99.90;;;;;;4944378;29;20040;-58
2022/05/27 11:43:19;;;;;;;12.02;2.75;;;13.40;99.90;;;;;;4952111;29;21059;-57
2022/05/27 11:46:23;;;;;;;16.35;2.88;;;13.50;99.90;;;;;;4953606;29;20499;-57
2022/05/27 11:48:56;;;;;;;14.25;2.90;;;13.40;99.90;;;;;;4912831;29;20063;-57
2022/05/27 11:51:33;;;;;;;15.07;3.10;;;13.50;99.90;;;;;;4925348;29;20229;-57
2022/05/27 11:54:22;;;;;;;14.77;3.95;;;13.50;99.90;;;;;;4907654;29;20504;-56
2022/05/27 11:57:01;;;;;;;16.05;3.15;;;13.40;99.90;;;;;;4924462;29;20108;-54
2022/05/27 11:59:37;;;;;;;18.65;3.60;;;13.20;99.90;;;;;;4927392;29;20063;-57
2022/05/27 12:02:26;;;;;;;16.33;2.78;;;13.50;99.90;;;;;;4934131;29;20066;-57
2022/05/27 12:05:01;;;;;;;13.98;2.90;;;13.60;99.90;;;;;;4953373;29;20035;-57
2022/05/27 12:08:01;;;;;;;17.45;3.83;;;13.40;99.90;;;;;;4952140;29;20059;-58
2022/05/27 12:10:54;;;;;;;15.63;3.45;;;13.40;99.90;;;;;;4931834;29;20047;-57
2022/05/27 12:13:35;;;;;;;20.58;3.08;;;13.40;99.90;;;;;;4921496;29;20052;-57
2022/05/27 12:16:09;;;;;;;11.80;3.10;;;13.70;99.90;;;;;;4931976;29;20047;-58
2022/05/27 12:18:38;;;;;;;16.25;3.60;;;13.70;99.90;;;;;;4940310;29;20052;-57
2022/05/27 12:21:06;;;;;;;14.40;2.83;;;13.60;99.90;;;;;;4921777;29;20052;-57
2022/05/27 12:23:37;;;;;;;16.35;3.80;;;13.50;99.90;;;;;;4933283;29;20122;-57
2022/05/27 12:26:03;;;;;;;16.10;4.07;;;13.50;99.90;;;;;;4937174;29;20040;-57
2022/05/27 12:28:33;;;;;;;22.25;3.85;;;14.00;99.90;;;;;;4921778;29;20550;-58
2022/05/27 12:31:01;;;;;;;13.88;3.30;;;14.20;99.90;;;;;;4920416;29;20044;-56
2022/05/27 12:33:30;;;;;;;12.80;3.17;;;14.10;99.90;;;;;;4943289;29;20073;-57
2022/05/27 12:36:06;;;;;;;13.77;2.88;;;13.90;99.90;;;;;;4949811;29;20039;-57
2022/05/27 12:38:41;;;;;;;15.68;3.35;;;14.20;99.90;;;;;;4950497;29;20074;-57
2022/05/27 12:41:09;;;;;;;15.90;3.13;;;14.50;99.90;;;;;;4946898;29;20530;-58
2022/05/27 12:44:00;;;;;;;15.30;3.38;;;14.20;99.90;;;;;;4926173;29;20048;-56
2022/05/27 12:46:42;;;;;;;11.35;2.63;;;13.90;99.90;;;;;;4957218;29;20616;-57
2022/05/27 12:49:25;;;;;;;14.27;2.63;;;14.40;99.90;;;;;;4939603;29;20051;-57
2022/05/27 12:51:52;;;;;;;15.63;3.55;;;14.00;99.90;;;;;;4936714;29;20051;-57
2022/05/27 12:54:43;;;;;;;15.95;3.25;;;13.70;99.90;;;;;;4945200;29;20078;-56
2022/05/27 13:03:32;;;;;;;;;;;13.50;99.90;;;;;;4941245;29;20066;-57
2022/05/27 13:06:22;;;;;;;13.15;2.67;;;13.60;99.90;;;;;;4961183;29;19970;-58
2022/05/27 13:08:51;;;;;;;21.35;3.55;;;13.30;99.90;;;;;;4951994;29;20051;-57
2022/05/27 13:11:33;;;;;;;17.40;3.35;;;13.30;99.90;;;;;;4961692;29;20094;-57
2022/05/27 13:14:05;;;;;;;;;;;13.30;99.90;;;;;;4934468;29;20482;-58
2022/05/27 13:17:08;;;;;;;14.65;2.60;;;13.20;99.90;;;;;;4943297;29;19947;-55
2022/05/27 13:19:49;;;;;;;14.70;2.97;;;13.40;99.90;;;;;;4923012;29;20074;-58
2022/05/27 13:22:57;;;;;;;16.25;3.15;;;13.50;99.90;;;;;;4929551;29;20039;-58
2022/05/27 13:25:31;;;;;;;26.10;3.78;;;13.60;99.90;;;;;;4923410;29;20052;-58
2022/05/27 13:28:03;;;;;;;14.70;3.20;;;14.00;99.90;;;;;;4923864;29;20056;-59
2022/05/27 13:31:07;;;;;;;15.35;3.45;;;13.70;99.90;;;;;;4927605;29;20546;-59
2022/05/27 13:33:50;;;;;;;15.80;2.95;;;13.50;99.90;;;;;;4943233;29;20047;-58
2022/05/27 13:36:29;;;;;;;13.20;2.97;;;13.80;99.90;;;;;;4942539;29;20055;-58
2022/05/27 13:39:01;;;;;;;13.10;2.60;;;14.00;99.90;;;;;;4942747;29;20055;-58
2022/05/27 13:41:28;;;;;;;;;;;13.90;99.90;;;;;;4916203;29;20060;-58
2022/05/27 13:43:56;;;;;;;17.70;3.03;;;13.60;99.90;;;;;;4923124;29;19923;-58
2022/05/27 13:46:28;;;;;;;14.75;3.30;;;14.10;99.90;;;;;;4923801;29;20052;-57
2022/05/27 13:48:53;;;;;;;14.15;2.65;;;14.00;99.90;;;;;;4923294;29;20052;-57
2022/05/27 13:51:21;;;;;;;14.68;2.28;;;13.90;99.90;;;;;;4924284;29;20076;-57
2022/05/27 13:53:48;;;;;;;16.88;3.40;;;14.10;99.90;;;;;;4935746;29;20074;-56
2022/05/27 13:56:25;;;;;;;21.20;2.83;;;14.10;99.90;;;;;;4941420;29;20058;-57
2022/05/27 13:58:54;;;;;;;15.82;3.97;;;14.00;99.90;;;;;;4942545;29;20071;-58
2022/05/27 14:01:25;;;;;;;12.93;2.63;;;14.00;99.90;;;;;;4939273;29;20052;-57
2022/05/27 14:04:06;;;;;;;18.83;3.90;;;14.40;99.90;;;;;;4939929;29;20385;-58
2022/05/27 14:06:35;;;;;;;18.38;3.33;;;14.60;99.90;;;;;;4942581;29;20044;-58
2022/05/27 14:09:18;;;;;;;16.30;2.40;;;14.40;99.90;;;;;;4941998;29;20044;-58
2022/05/27 14:11:50;;;;;;;13.15;3.05;;;14.10;99.90;;;;;;4932581;29;20083;-57